North Chicago, IL (60064)

12:07 PM CST on December 02, 2016 (GMT -0600)
NE North Chicago | | Change Station

Elev 656 ft 42.34 °N, 87.84 °W | Updated 7 seconds ago

Overcast
Overcast
38.0 °F
Feels Like 32 °F
N
9.0
Wind Variable Wind from ENE

Today
High -- | Low -- °F
--% Chance of Precip.
Yesterday
High -- | Low -- °F
Precip. -- in
Pressure 30.19 in
Visibility 10.0 miles
Clouds Overcast 3700 ft
Windchill 32 °F
Dew Point 28 °F
Humidity 69%
Rainfall 0.00 in
Snow Depth Not available.
7:02 AM 4:19 PM
Waxing Crescent, 9% visible
METAR KUGN 021755Z 30010KT 10SM OVC037 03/M04 A3016 RMK AO2 SLP223 60000 T00281039 10033 20011 51012
Pressure 30.19 in
Visibility 10.0 miles
Clouds Overcast 3700 ft
Windchill 32 °F
Dew Point 28 °F
Humidity 69%
Rainfall 0.00 in
Snow Depth Not available.
7:02 AM 4:19 PM
Waxing Crescent, 9% visible
METAR KUGN 021755Z 30010KT 10SM OVC037 03/M04 A3016 RMK AO2 SLP223 60000 T00281039 10033 20011 51012

10-Day Weather Forecast

Almanac

Astronomy

Dec. 02, 2016 Rise Set
Actual Time
Civil Twilight
Nautical Twilight
Astronomical Twilight
Moon
Length of Visible Light
Length of Day
Tomorrow will be .
, % of the Moon is Illuminated

Today's Extremes

State Highs State Lows

Community

WunderPhotos

Upload Photos

1,955,333 photos uploaded!

WunderBlog® & News

Nearby

Air Quality

  Air Quality AQ Index Pollutant
Not available.

Snow Depth

Station Depth Elevation

Earthquake Activity

City Distance Mag. Time & Date
Minimum magnitude displayed is 2.5.

Coastal Water Temperatures

Place Temperature

Stations

Nearby Weather Stations

Station Location Temp. Windchill Dew Point Humidity Wind Precip. Elev Updated Type
                   

Watches & Warnings

There are currently no watches in effect.